Hauptseite
METAR-TAF:

METAR-TAF

Flughäfen :

City-Airport Mannheim

Mannheim, Deutschland

Breite: 49-28-21N, Länge: 008-30-56E, Höhe: 100 m

Beobachtung

Neuester Wetterbericht von vor 38 Minuten, um 17:20 UTC
Wind 4 kt aus Süd, variierte zwischen Südost und Süd/Südwest
Temperatur 21°C
Luftfeuchtigkeit 73%
Luftdruck 1013 hPa
Sichtweite 10 km oder mehr
Leicht bewölkt in der Höhe von 2500 ft
Durchbrochene Bewölkung in der Höhe von 7600 ft

METAR: EDFM 281720Z 17004KT 140V210 9999 FEW025 BKN076 21/16 Q1013

Zeit: 19:58 (17:58 UTC)

Prognose

Neuester Wetterbericht von vor 58 Minuten, um 17:00 UTC
Gültige Prognose vom 28 um 18 UTC bis 28 um 21 UTC
Wind 9 kt aus Süd/Südwest
Sichtweite 10 km oder mehr
Aufgelockert bewölkt in der Höhe von 4000 ft
Übergehend zu
vom 28 um 18 UTC bis 28 um 21 UTC
Wind 4 kt aus Süd/Südwest

TAF: EDFM 281700Z 2818/2821 21009KT 9999 SCT040 BECMG 2818/2821 20004KT

Wetterbeobachtungen und Prognosen von mehr als 4000 Flughäfen (METAR und TAF Bericht).

Die verfügbaren Stationen werden durch gelbe und rote Markierungen auf der Karte dargestellt.

Führen Sie die Maus auf sie, um den Namen der Station zu sehen.

Darauf klicken, um die Beobachtung von Wetterbeobachtungen und Prognosen zu sehen.

Um die Karte zu ändern : klicken Sie auf den grünen Tasten mit einem schwarzen Kreuz Zum Vergrößern, auf den grünen Button mit einem Gedankenstrich zu verkleinern, oder auf die grünen Pfeile für benachbarte Karten.


METAR-TAF: